< < Back
Terminal Aerodrome Forecast


Current Version              Previous Versions:   1  2  3  4  5  6  7  8  9  

Terminal Aerodrome Forecast

251
FTUS44 KBMX 271129
TAFTCL
TAF
KTCL 271129Z 2712/2812 00000KT 5SM BR SKC
     FM271300 32004KT P6SM SCT050
     FM272100 36004KT P6SM VCTS BKN050CB BKN250
     FM280300 00000KT P6SM SKC
     FM281000 00000KT 5SM BR SKC=

Latest METAR

894
SAUS70 KWBC 281500
MTRTCL
METAR KTCL 281453Z 00000KT 8SM CLR 31/24 A3002 RMK AO2 SLP163 T03060239
50006


USA.gov is the U.S. government's official web portal to all federal, state and local government web resources and services.